S C — FGF7634 — position and weather

sailwx.info

Track history (hours):
 
Tides and Currents Weather Stations Pressure Air Temp Water Temp Dewpoint Dewpoint Depression Visibility Wind Speed Wind Dir Waves Ship Positions

S C

Last reported at 2017-May-15 22:47 UTC. Time now 2017-May-26 14:55 UTC.
Position N 49°29' E 000°07'.
Warning: this ship's position is 10 days out of date.

; draft 1 m.

Type: Pilot. MMSI: 227001820.

Date/timePositionNaut miles runAvg speedWind from/ knotsBaromVisibWave heightAir tempDewpointWater temp
2017-May-15 22:47N 49°29' E 000°07'0 0.0
2017-May-15 22:30N 49°29' E 000°07'0 0.0
2017-May-15 22:00N 49°29' E 000°07'4 8.6
2017-May-15 21:30N 49°30' E 000°00'1 2.8
2017-May-15 21:00N 49°30' E 000°02'3 5.8
2017-May-15 20:30N 49°29' E 000°07'0 0.0
2017-May-15 20:00N 49°29' E 000°07'0 0.0
2017-May-15 19:30N 49°29' E 000°07'0 0.0
2017-May-15 19:00N 49°29' E 000°07'0 0.0
2017-May-15 18:30N 49°29' E 000°07'0 0.0
2017-May-15 18:00N 49°29' E 000°07'0 0.0
2017-May-15 17:30N 49°29' E 000°07'0 0.0
2017-May-15 17:00N 49°29' E 000°07'0 0.0
2017-May-15 16:30N 49°29' E 000°07'0 0.0
2017-May-15 16:00N 49°29' E 000°07'0 0.0
2017-May-15 15:30N 49°29' E 000°07'0 0.0
2017-May-15 15:00N 49°29' E 000°07'0 0.0
2017-May-15 14:00N 49°29' E 000°07'0 0.0
2017-May-15 13:30N 49°29' E 000°07'0 0.0
2017-May-15 13:00N 49°29' E 000°07'0 0.0
2017-May-15 12:30N 49°29' E 000°07'0 0.0
2017-May-15 12:00N 49°29' E 000°07'5 9.1
2017-May-15 11:30N 49°30' W 000°00'4 8.2
2017-May-15 11:00N 49°32' W 000°06'817.0
2017-May-15 10:31N 49°29' E 000°07'0 0.3
2017-May-15 10:01N 49°29' E 000°07'0 0.0
2017-May-15 09:31N 49°29' E 000°07'815.0
2017-May-15 09:00N 49°31' W 000°04'815.0
2017-May-15 08:30N 49°29' E 000°07'0 0.0
2017-May-15 08:00N 49°29' E 000°07'0 0.0
2017-May-15 07:30N 49°29' E 000°07'0 0.3
2017-May-15 07:00N 49°29' E 000°07'0 0.3
2017-May-15 06:30N 49°29' E 000°07'0 0.0
2017-May-15 06:00N 49°29' E 000°07'0 0.0
2017-May-15 05:30N 49°29' E 000°07'0 0.0
2017-May-15 05:00N 49°29' E 000°07'3 6.0
2017-May-15 04:31N 49°30' E 000°02'3 6.0
2017-May-15 04:00N 49°29' E 000°07'0 0.0
2017-May-15 03:30N 49°29' E 000°07'0 0.0
2017-May-15 03:00N 49°29' E 000°07'713.7
2017-May-15 02:30N 49°31' W 000°03'713.6
2017-May-15 02:00N 49°29' E 000°07'0 0.1
2017-May-15 01:30N 49°29' E 000°07'0 0.0
2017-May-15 01:00N 49°29' E 000°07'0 0.0
2017-May-15 00:30N 49°29' E 000°07'0 0.0
2017-May-15 00:00N 49°29' E 000°07'0 0.0
2017-May-14 23:30N 49°29' E 000°07'0 0.0
2017-May-14 23:00N 49°29' E 000°07'0 0.0
2017-May-14 22:30N 49°29' E 000°07'1 1.4
2017-May-14 22:00N 49°29' E 000°06'1 1.4
2017-May-14 21:30N 49°29' E 000°07'0 0.0
2017-May-14 21:00N 49°29' E 000°07'0 0.0
2017-May-14 20:30N 49°29' E 000°07'0 0.0
2017-May-14 20:00N 49°29' E 000°07'0 0.0
2017-May-14 19:30N 49°29' E 000°07'0 0.0
2017-May-14 19:00N 49°29' E 000°07'0 0.0
2017-May-14 18:30N 49°29' E 000°07'0 0.0
2017-May-14 18:00N 49°29' E 000°07'0 0.0
2017-May-14 17:30N 49°29' E 000°07'1 1.2
2017-May-14 17:00N 49°29' E 000°06'713.8
2017-May-14 16:30N 49°31' W 000°04'714.9
2017-May-14 16:00N 49°29' E 000°07'0 0.0
2017-May-14 15:30N 49°29' E 000°07'0 0.0
2017-May-14 15:00N 49°29' E 000°07'612.4
2017-May-14 14:30N 49°31' W 000°02'6 6.2
2017-May-14 13:30N 49°29' E 000°07'0 0.0
2017-May-14 13:00N 49°29' E 000°07'0 0.0
2017-May-14 12:30N 49°29' E 000°07'0 0.0
2017-May-14 12:00N 49°29' E 000°07'0 0.0
2017-May-14 11:30N 49°29' E 000°07'0 0.0
2017-May-14 11:00N 49°29' E 000°07'0 0.0
2017-May-14 10:30N 49°29' E 000°07'0 0.0
2017-May-14 10:00N 49°29' E 000°07'0 0.0
2017-May-14 09:30N 49°29' E 000°07'0 0.0
2017-May-14 09:00N 49°29' E 000°07'0 0.0
2017-May-14 08:30N 49°29' E 000°07'0 0.0
2017-May-14 08:00N 49°29' E 000°07'0 0.0
2017-May-14 07:30N 49°29' E 000°07'0 0.0
2017-May-14 07:00N 49°29' E 000°07'0 0.0
2017-May-14 06:30N 49°29' E 000°07'0 0.0
2017-May-14 06:00N 49°29' E 000°07'0 0.0
2017-May-14 05:30N 49°29' E 000°07'0 0.0
2017-May-14 05:00N 49°29' E 000°07'0 0.0
2017-May-14 04:30N 49°29' E 000°07'0 0.0
2017-May-14 04:00N 49°29' E 000°07'0 0.0
2017-May-14 03:30N 49°29' E 000°07'0 0.0
2017-May-14 03:00N 49°29' E 000°07'2 4.5
2017-May-14 02:30N 49°30' E 000°03'2 4.5
2017-May-14 02:00N 49°29' E 000°07'0 0.0
2017-May-14 01:30N 49°29' E 000°07'816.8
2017-May-14 01:00N 49°31' W 000°06'816.8
2017-May-14 00:30N 49°29' E 000°07'0 0.0
2017-May-14 00:00N 49°29' E 000°07'0 0.0
2017-May-13 23:30N 49°29' E 000°07'0 0.0
2017-May-13 23:00N 49°29' E 000°07'0 0.0
2017-May-13 22:30N 49°29' E 000°07'0 0.0
2017-May-13 22:00N 49°29' E 000°07'0 0.0
2017-May-13 21:30N 49°29' E 000°07'0 0.0
2017-May-13 21:00N 49°29' E 000°07'0 0.0
2017-May-13 20:30N 49°29' E 000°07'0 0.0
2017-May-13 20:00N 49°29' E 000°07'0 0.0
2017-May-13 19:30N 49°29' E 000°07'0 0.0
2017-May-13 19:00N 49°29' E 000°07'0 0.0
2017-May-13 18:30N 49°29' E 000°07'0 0.0
2017-May-13 18:00N 49°29' E 000°07'2 3.4
2017-May-13 17:30N 49°29' E 000°04'5 9.9
2017-May-13 17:01N 49°31' W 000°03'713.2
2017-May-13 16:30N 49°29' E 000°07'0 0.0
2017-May-13 16:00N 49°29' E 000°07'0 0.0
2017-May-13 15:30N 49°29' E 000°07'0 0.0
2017-May-13 15:00N 49°29' E 000°07'0 0.0
2017-May-13 14:30N 49°29' E 000°07'0 0.0
2017-May-13 13:30N 49°29' E 000°07'0 0.0
2017-May-13 13:00N 49°29' E 000°07'0 0.0
2017-May-13 12:30N 49°29' E 000°07'0 0.0
2017-May-13 12:00N 49°29' E 000°07'0 0.0
2017-May-13 11:30N 49°29' E 000°07'0 0.0
2017-May-13 11:00N 49°29' E 000°07'0 0.0
2017-May-13 10:30N 49°29' E 000°07'0 0.0
2017-May-13 10:00N 49°29' E 000°07'0 0.0
2017-May-13 09:30N 49°29' E 000°07'0 0.0
2017-May-13 09:00N 49°29' E 000°07'0 0.0
2017-May-13 08:30N 49°29' E 000°07'0 0.0
2017-May-13 08:00N 49°29' E 000°07'0 0.0
2017-May-13 07:30N 49°29' E 000°07'0 0.0
2017-May-13 07:00N 49°29' E 000°07'0 0.0
2017-May-13 06:30N 49°29' E 000°07'0 0.0
2017-May-13 06:00N 49°29' E 000°07'0 0.0
2017-May-13 05:30N 49°29' E 000°07'0 0.0
2017-May-13 05:00N 49°29' E 000°07'4 7.8
2017-May-13 04:30N 49°30' E 000°01'4 8.6
2017-May-13 04:00N 49°31' W 000°06'816.1
2017-May-13 03:30N 49°29' E 000°06'0 0.4
2017-May-13 03:00N 49°29' E 000°07'0 0.0
2017-May-13 02:30N 49°29' E 000°07'1 2.3
2017-May-13 02:00N 49°29' E 000°05'3 6.5
2017-May-13 01:30N 49°30' E 000°00'2 3.6
2017-May-13 01:00N 49°31' W 000°02'612.4
2017-May-13 00:30N 49°29' E 000°07'0 0.0
2017-May-13 00:00N 49°29' E 000°07'815.4
2017-May-12 23:30N 49°31' W 000°05'815.4
2017-May-12 23:01N 49°29' E 000°07'0 0.8
2017-May-12 22:30N 49°29' E 000°06'0 0.8
2017-May-12 22:01N 49°29' E 000°07'0 0.0
2017-May-12 21:31N 49°29' E 000°07'0 0.0
2017-May-12 21:00N 49°29' E 000°07'0 0.0
2017-May-12 20:31N 49°29' E 000°07'0 0.0
2017-May-12 20:01N 49°29' E 000°07'0 0.3
2017-May-12 19:30N 49°29' E 000°07'713.2
2017-May-12 19:01N 49°31' W 000°03'510.6
2017-May-12 18:31N 49°29' E 000°05'1 2.9
2017-May-12 18:00N 49°29' E 000°07'0 0.0
2017-May-12 17:30N 49°29' E 000°07'0 0.0
2017-May-12 17:00N 49°29' E 000°07'0 0.0
2017-May-12 16:30N 49°29' E 000°07'0 0.0
2017-May-10 14:00N 49°29' E 000°07'0 0.0
2017-May-09 12:38N 49°29' E 000°07'0 0.0
2017-May-09 12:31N 49°29' E 000°07'0 0.0
2017-May-09 12:01N 49°29' E 000°07'0 0.0
2017-May-09 11:31N 49°29' E 000°07'0 0.0
2017-May-09 11:01N 49°29' E 000°07'0 0.0
2017-May-09 10:31N 49°29' E 000°07'0 0.0
2017-May-09 10:01N 49°29' E 000°07'0 0.0
2017-May-09 09:31N 49°29' E 000°07'0 0.0
2017-May-09 09:00N 49°29' E 000°07'0 0.0
2017-May-09 08:31N 49°29' E 000°07'0 0.0
2017-May-09 08:01N 49°29' E 000°07'0 0.0
2017-May-09 07:31N 49°29' E 000°07'0 0.0
2017-May-09 07:01N 49°29' E 000°07'0 0.0
2017-May-09 06:30N 49°29' E 000°07'  
2017-May-06 06:11N 49°29' E 000°07'0 0.6
2017-May-06 06:01N 49°29' E 000°07'1 1.6
2017-May-06 05:30N 49°29' E 000°06'816.4
2017-May-06 05:01N 49°32' W 000°06'917.8
2017-May-06 04:30N 49°29' E 000°07'0 0.0
2017-May-06 04:00N 49°29' E 000°07'1 2.8
2017-May-06 03:31N 49°29' E 000°05'714.4
2017-May-06 03:00N 49°31' W 000°06'917.1
2017-May-06 02:30N 49°29' E 000°07'0 0.0
2017-May-06 02:01N 49°29' E 000°07'0 0.0
2017-May-06 01:30N 49°29' E 000°07'0 0.0
2017-May-06 01:00N 49°29' E 000°07'0 0.0
2017-May-06 00:30N 49°29' E 000°07'0 0.0
2017-May-06 00:00N 49°29' E 000°07'0 0.0
2017-May-05 23:30N 49°29' E 000°07'0 0.0
2017-May-05 23:00N 49°29' E 000°07'  
Track history (hours):
 
Tides and Currents Weather Stations Pressure Air Temp Water Temp Dewpoint Dewpoint Depression Visibility Wind Speed Wind Dir Waves Ship Positions

S C

Last reported at 2017-May-15 22:47 UTC. Time now 2017-May-26 14:55 UTC.
Position N 49°29' E 000°07'.
Warning: this ship's position is 10 days out of date.

; draft 1 m.

Type: Pilot. MMSI: 227001820.

Date/timePositionNaut miles runAvg speedWind from/ knotsBaromVisibWave heightAir tempDewpointWater temp
2017-May-15 22:47N 49°29' E 000°07'0 0.0
2017-May-15 22:30N 49°29' E 000°07'0 0.0
2017-May-15 22:00N 49°29' E 000°07'4 8.6
2017-May-15 21:30N 49°30' E 000°00'1 2.8
2017-May-15 21:00N 49°30' E 000°02'3 5.8
2017-May-15 20:30N 49°29' E 000°07'0 0.0
2017-May-15 20:00N 49°29' E 000°07'0 0.0
2017-May-15 19:30N 49°29' E 000°07'0 0.0
2017-May-15 19:00N 49°29' E 000°07'0 0.0
2017-May-15 18:30N 49°29' E 000°07'0 0.0
2017-May-15 18:00N 49°29' E 000°07'0 0.0
2017-May-15 17:30N 49°29' E 000°07'0 0.0
2017-May-15 17:00N 49°29' E 000°07'0 0.0
2017-May-15 16:30N 49°29' E 000°07'0 0.0
2017-May-15 16:00N 49°29' E 000°07'0 0.0
2017-May-15 15:30N 49°29' E 000°07'0 0.0
2017-May-15 15:00N 49°29' E 000°07'0 0.0
2017-May-15 14:00N 49°29' E 000°07'0 0.0
2017-May-15 13:30N 49°29' E 000°07'0 0.0
2017-May-15 13:00N 49°29' E 000°07'0 0.0
2017-May-15 12:30N 49°29' E 000°07'0 0.0
2017-May-15 12:00N 49°29' E 000°07'5 9.1
2017-May-15 11:30N 49°30' W 000°00'4 8.2
2017-May-15 11:00N 49°32' W 000°06'817.0
2017-May-15 10:31N 49°29' E 000°07'0 0.3
2017-May-15 10:01N 49°29' E 000°07'0 0.0
2017-May-15 09:31N 49°29' E 000°07'815.0
2017-May-15 09:00N 49°31' W 000°04'815.0
2017-May-15 08:30N 49°29' E 000°07'0 0.0
2017-May-15 08:00N 49°29' E 000°07'0 0.0
2017-May-15 07:30N 49°29' E 000°07'0 0.3
2017-May-15 07:00N 49°29' E 000°07'0 0.3
2017-May-15 06:30N 49°29' E 000°07'0 0.0
2017-May-15 06:00N 49°29' E 000°07'0 0.0
2017-May-15 05:30N 49°29' E 000°07'0 0.0
2017-May-15 05:00N 49°29' E 000°07'3 6.0
2017-May-15 04:31N 49°30' E 000°02'3 6.0
2017-May-15 04:00N 49°29' E 000°07'0 0.0
2017-May-15 03:30N 49°29' E 000°07'0 0.0
2017-May-15 03:00N 49°29' E 000°07'713.7
2017-May-15 02:30N 49°31' W 000°03'713.6
2017-May-15 02:00N 49°29' E 000°07'0 0.1
2017-May-15 01:30N 49°29' E 000°07'0 0.0
2017-May-15 01:00N 49°29' E 000°07'0 0.0
2017-May-15 00:30N 49°29' E 000°07'0 0.0
2017-May-15 00:00N 49°29' E 000°07'0 0.0
2017-May-14 23:30N 49°29' E 000°07'0 0.0
2017-May-14 23:00N 49°29' E 000°07'0 0.0
2017-May-14 22:30N 49°29' E 000°07'1 1.4
2017-May-14 22:00N 49°29' E 000°06'1 1.4
2017-May-14 21:30N 49°29' E 000°07'0 0.0
2017-May-14 21:00N 49°29' E 000°07'0 0.0
2017-May-14 20:30N 49°29' E 000°07'0 0.0
2017-May-14 20:00N 49°29' E 000°07'0 0.0
2017-May-14 19:30N 49°29' E 000°07'0 0.0
2017-May-14 19:00N 49°29' E 000°07'0 0.0
2017-May-14 18:30N 49°29' E 000°07'0 0.0
2017-May-14 18:00N 49°29' E 000°07'0 0.0
2017-May-14 17:30N 49°29' E 000°07'1 1.2
2017-May-14 17:00N 49°29' E 000°06'713.8
2017-May-14 16:30N 49°31' W 000°04'714.9
2017-May-14 16:00N 49°29' E 000°07'0 0.0
2017-May-14 15:30N 49°29' E 000°07'0 0.0
2017-May-14 15:00N 49°29' E 000°07'612.4
2017-May-14 14:30N 49°31' W 000°02'6 6.2
2017-May-14 13:30N 49°29' E 000°07'0 0.0
2017-May-14 13:00N 49°29' E 000°07'0 0.0
2017-May-14 12:30N 49°29' E 000°07'0 0.0
2017-May-14 12:00N 49°29' E 000°07'0 0.0
2017-May-14 11:30N 49°29' E 000°07'0 0.0
2017-May-14 11:00N 49°29' E 000°07'0 0.0
2017-May-14 10:30N 49°29' E 000°07'0 0.0
2017-May-14 10:00N 49°29' E 000°07'0 0.0
2017-May-14 09:30N 49°29' E 000°07'0 0.0
2017-May-14 09:00N 49°29' E 000°07'0 0.0
2017-May-14 08:30N 49°29' E 000°07'0 0.0
2017-May-14 08:00N 49°29' E 000°07'0 0.0
2017-May-14 07:30N 49°29' E 000°07'0 0.0
2017-May-14 07:00N 49°29' E 000°07'0 0.0
2017-May-14 06:30N 49°29' E 000°07'0 0.0
2017-May-14 06:00N 49°29' E 000°07'0 0.0
2017-May-14 05:30N 49°29' E 000°07'0 0.0
2017-May-14 05:00N 49°29' E 000°07'0 0.0
2017-May-14 04:30N 49°29' E 000°07'0 0.0
2017-May-14 04:00N 49°29' E 000°07'0 0.0
2017-May-14 03:30N 49°29' E 000°07'0 0.0
2017-May-14 03:00N 49°29' E 000°07'2 4.5
2017-May-14 02:30N 49°30' E 000°03'2 4.5
2017-May-14 02:00N 49°29' E 000°07'0 0.0
2017-May-14 01:30N 49°29' E 000°07'816.8
2017-May-14 01:00N 49°31' W 000°06'816.8
2017-May-14 00:30N 49°29' E 000°07'0 0.0
2017-May-14 00:00N 49°29' E 000°07'0 0.0
2017-May-13 23:30N 49°29' E 000°07'0 0.0
2017-May-13 23:00N 49°29' E 000°07'0 0.0
2017-May-13 22:30N 49°29' E 000°07'0 0.0
2017-May-13 22:00N 49°29' E 000°07'0 0.0
2017-May-13 21:30N 49°29' E 000°07'0 0.0
2017-May-13 21:00N 49°29' E 000°07'0 0.0
2017-May-13 20:30N 49°29' E 000°07'0 0.0
2017-May-13 20:00N 49°29' E 000°07'0 0.0
2017-May-13 19:30N 49°29' E 000°07'0 0.0
2017-May-13 19:00N 49°29' E 000°07'0 0.0
2017-May-13 18:30N 49°29' E 000°07'0 0.0
2017-May-13 18:00N 49°29' E 000°07'2 3.4
2017-May-13 17:30N 49°29' E 000°04'5 9.9
2017-May-13 17:01N 49°31' W 000°03'713.2
2017-May-13 16:30N 49°29' E 000°07'0 0.0
2017-May-13 16:00N 49°29' E 000°07'0 0.0
2017-May-13 15:30N 49°29' E 000°07'0 0.0
2017-May-13 15:00N 49°29' E 000°07'0 0.0
2017-May-13 14:30N 49°29' E 000°07'0 0.0
2017-May-13 13:30N 49°29' E 000°07'0 0.0
2017-May-13 13:00N 49°29' E 000°07'0 0.0
2017-May-13 12:30N 49°29' E 000°07'0 0.0
2017-May-13 12:00N 49°29' E 000°07'0 0.0
2017-May-13 11:30N 49°29' E 000°07'0 0.0
2017-May-13 11:00N 49°29' E 000°07'0 0.0
2017-May-13 10:30N 49°29' E 000°07'0 0.0
2017-May-13 10:00N 49°29' E 000°07'0 0.0
2017-May-13 09:30N 49°29' E 000°07'0 0.0
2017-May-13 09:00N 49°29' E 000°07'0 0.0
2017-May-13 08:30N 49°29' E 000°07'0 0.0
2017-May-13 08:00N 49°29' E 000°07'0 0.0
2017-May-13 07:30N 49°29' E 000°07'0 0.0
2017-May-13 07:00N 49°29' E 000°07'0 0.0
2017-May-13 06:30N 49°29' E 000°07'0 0.0
2017-May-13 06:00N 49°29' E 000°07'0 0.0
2017-May-13 05:30N 49°29' E 000°07'0 0.0
2017-May-13 05:00N 49°29' E 000°07'4 7.8
2017-May-13 04:30N 49°30' E 000°01'4 8.6
2017-May-13 04:00N 49°31' W 000°06'816.1
2017-May-13 03:30N 49°29' E 000°06'0 0.4
2017-May-13 03:00N 49°29' E 000°07'0 0.0
2017-May-13 02:30N 49°29' E 000°07'1 2.3
2017-May-13 02:00N 49°29' E 000°05'3 6.5
2017-May-13 01:30N 49°30' E 000°00'2 3.6
2017-May-13 01:00N 49°31' W 000°02'612.4
2017-May-13 00:30N 49°29' E 000°07'0 0.0
2017-May-13 00:00N 49°29' E 000°07'815.4
2017-May-12 23:30N 49°31' W 000°05'815.4
2017-May-12 23:01N 49°29' E 000°07'0 0.8
2017-May-12 22:30N 49°29' E 000°06'0 0.8
2017-May-12 22:01N 49°29' E 000°07'0 0.0
2017-May-12 21:31N 49°29' E 000°07'0 0.0
2017-May-12 21:00N 49°29' E 000°07'0 0.0
2017-May-12 20:31N 49°29' E 000°07'0 0.0
2017-May-12 20:01N 49°29' E 000°07'0 0.3
2017-May-12 19:30N 49°29' E 000°07'713.2
2017-May-12 19:01N 49°31' W 000°03'510.6
2017-May-12 18:31N 49°29' E 000°05'1 2.9
2017-May-12 18:00N 49°29' E 000°07'0 0.0
2017-May-12 17:30N 49°29' E 000°07'0 0.0
2017-May-12 17:00N 49°29' E 000°07'0 0.0
2017-May-12 16:30N 49°29' E 000°07'0 0.0
2017-May-10 14:00N 49°29' E 000°07'0 0.0
2017-May-09 12:38N 49°29' E 000°07'0 0.0
2017-May-09 12:31N 49°29' E 000°07'0 0.0
2017-May-09 12:01N 49°29' E 000°07'0 0.0
2017-May-09 11:31N 49°29' E 000°07'0 0.0
2017-May-09 11:01N 49°29' E 000°07'0 0.0
2017-May-09 10:31N 49°29' E 000°07'0 0.0
2017-May-09 10:01N 49°29' E 000°07'0 0.0
2017-May-09 09:31N 49°29' E 000°07'0 0.0
2017-May-09 09:00N 49°29' E 000°07'0 0.0
2017-May-09 08:31N 49°29' E 000°07'0 0.0
2017-May-09 08:01N 49°29' E 000°07'0 0.0
2017-May-09 07:31N 49°29' E 000°07'0 0.0
2017-May-09 07:01N 49°29' E 000°07'0 0.0
2017-May-09 06:30N 49°29' E 000°07'  
2017-May-06 06:11N 49°29' E 000°07'0 0.6
2017-May-06 06:01N 49°29' E 000°07'1 1.6
2017-May-06 05:30N 49°29' E 000°06'816.4
2017-May-06 05:01N 49°32' W 000°06'917.8
2017-May-06 04:30N 49°29' E 000°07'0 0.0
2017-May-06 04:00N 49°29' E 000°07'1 2.8
2017-May-06 03:31N 49°29' E 000°05'714.4
2017-May-06 03:00N 49°31' W 000°06'917.1
2017-May-06 02:30N 49°29' E 000°07'0 0.0
2017-May-06 02:01N 49°29' E 000°07'0 0.0
2017-May-06 01:30N 49°29' E 000°07'0 0.0
2017-May-06 01:00N 49°29' E 000°07'0 0.0
2017-May-06 00:30N 49°29' E 000°07'0 0.0
2017-May-06 00:00N 49°29' E 000°07'0 0.0
2017-May-05 23:30N 49°29' E 000°07'0 0.0
2017-May-05 23:00N 49°29' E 000°07'  

Dump ship's entire track history